Weather report/warning/Metars

Scilly, Saint Mary'S, United Kingdom (EGHE) 49-55N 006-18W 0M
Mar 22, 2022 - 11:20 AM EDT / 2022.03.22 1520 UTC
Wind: from the ESE (110 degrees) at 24 MPH (21 KT):0
Visibility: greater than 7 mile(s):0
Temperature: 53 F (12 C)
Dew Point: 46 F (8 C)
Relative Humidity: 76%
Pressure (altimeter): 30.15 in. Hg (1021 hPa)
ob: EGHE 221520Z 11021KT CAVOK 12/08 Q1021
cycle: 15

Date: 22/3/2022
Sunrise at:
06:21 am

Sunset at:
06:38 pm

Moonrise at:
---

Moonset at:
08:09 am 22/03/22

First Quarter  10 March 2022
Full moon  18 March 2022
Last Quarter25 March 2022
New moon 1 April 2022
Moon age: 19 days,8 hours,36 minutes,78%
Hours of possible daylight today was 00:00:00



The data is logged at two minute intervals, but there is data recorded every minute.

Use the RELOAD facility on your browser to retrieve the latest data.

Click here for a daily update of the averages/extremes to date for the month
Created by "Weather Display" software version 10.37S 06:10:47 31/08/2020